Terminal Aerodrome Forecast
Issued by NWS Shreveport, LA

Home | Current Version | Previous Version | Text Only | Print | Product List | Glossary On
Versions: 1 2 3 4 5 6 7 8 9 10 11 12 13 14 15 16
000
FTUS44 KSHV 181139
TAFTXK
TAF
KTXK 181139Z 1812/1912 VRB03KT 4SM BR OVC003
      TEMPO 1812/1816 1/2SM FG OVC002
     FM181900 VRB03KT 4SM BR OVC004
     FM190200 14004KT 2SM BR OVC003
     FM190600 15004KT 2SM BR OVC002=

USA.gov is the U.S. government's official web portal to all federal, state and local government web resources and services.